sensor_id;sensor_type;location;lat;lon;timestamp;pressure;altitude;pressure_sealevel;temperature;humidity
44675;BME280;30388;52.038;-1.478;2022-10-15T00:01:31;65935.49;;;12.04;100.00
44675;BME280;30388;52.038;-1.478;2022-10-15T00:03:59;65835.86;;;11.28;100.00
44675;BME280;30388;52.038;-1.478;2022-10-15T00:06:26;65887.04;;;11.43;100.00
44675;BME280;30388;52.038;-1.478;2022-10-15T00:08:53;65864.46;;;11.15;100.00
44675;BME280;30388;52.038;-1.478;2022-10-15T00:11:24;65886.05;;;11.42;100.00
44675;BME280;30388;52.038;-1.478;2022-10-15T00:13:53;65847.92;;;11.16;100.00
44675;BME280;30388;52.038;-1.478;2022-10-15T00:16:22;65827.17;;;11.16;100.00
44675;BME280;30388;52.038;-1.478;2022-10-15T00:18:51;65856.09;;;11.27;100.00
44675;BME280;30388;52.038;-1.478;2022-10-15T00:21:21;65844.40;;;11.39;100.00
44675;BME280;30388;52.038;-1.478;2022-10-15T00:23:49;65858.11;;;11.55;100.00
44675;BME280;30388;52.038;-1.478;2022-10-15T00:26:19;65840.47;;;11.07;100.00
44675;BME280;30388;52.038;-1.478;2022-10-15T00:28:49;65819.74;;;11.07;100.00
44675;BME280;30388;52.038;-1.478;2022-10-15T00:31:17;65837.12;;;11.29;100.00
44675;BME280;30388;52.038;-1.478;2022-10-15T00:33:45;65823.67;;;11.12;100.00
44675;BME280;30388;52.038;-1.478;2022-10-15T00:36:16;65835.39;;;10.78;100.00
44675;BME280;30388;52.038;-1.478;2022-10-15T00:38:44;65783.11;;;10.83;100.00
44675;BME280;30388;52.038;-1.478;2022-10-15T00:41:14;65789.67;;;10.69;100.00
44675;BME280;30388;52.038;-1.478;2022-10-15T00:43:43;65843.39;;;11.37;100.00
44675;BME280;30388;52.038;-1.478;2022-10-15T00:46:17;65889.08;;;11.46;100.00
44675;BME280;30388;52.038;-1.478;2022-10-15T00:48:49;65883.35;;;11.38;100.00
44675;BME280;30388;52.038;-1.478;2022-10-15T00:51:18;65866.81;;;11.17;100.00
44675;BME280;30388;52.038;-1.478;2022-10-15T00:53:47;65943.33;;;12.14;100.00
44675;BME280;30388;52.038;-1.478;2022-10-15T00:56:18;65880.73;;;11.36;100.00
44675;BME280;30388;52.038;-1.478;2022-10-15T00:58:47;65864.29;;;11.37;100.00
44675;BME280;30388;52.038;-1.478;2022-10-15T01:01:15;65881.20;;;11.58;100.00
44675;BME280;30388;52.038;-1.478;2022-10-15T01:03:42;65748.66;;;10.17;100.00
44675;BME280;30388;52.038;-1.478;2022-10-15T01:06:10;65846.17;;;11.41;100.00
44675;BME280;30388;52.038;-1.478;2022-10-15T01:08:37;65828.16;;;11.18;100.00
44675;BME280;30388;52.038;-1.478;2022-10-15T01:11:13;65855.21;;;11.03;100.00
44675;BME280;30388;52.038;-1.478;2022-10-15T01:13:50;65913.48;;;12.25;100.00
44675;BME280;30388;52.038;-1.478;2022-10-15T01:16:27;65925.62;;;11.65;100.00
44675;BME280;30388;52.038;-1.478;2022-10-15T01:19:00;65973.87;;;12.26;100.00
44675;BME280;30388;52.038;-1.478;2022-10-15T01:21:33;65859.94;;;11.08;100.00
44675;BME280;30388;52.038;-1.478;2022-10-15T01:24:21;65912.93;;;11.76;100.00
44675;BME280;30388;52.038;-1.478;2022-10-15T01:27:37;65882.80;;;11.60;100.00
44675;BME280;30388;52.038;-1.478;2022-10-15T01:30:19;65851.60;;;11.20;100.00
44675;BME280;30388;52.038;-1.478;2022-10-15T01:32:55;65824.21;;;11.13;100.00
44675;BME280;30388;52.038;-1.478;2022-10-15T01:35:33;65867.72;;;11.41;100.00
44675;BME280;30388;52.038;-1.478;2022-10-15T01:38:13;65887.76;;;11.67;100.00
44675;BME280;30388;52.038;-1.478;2022-10-15T01:40:48;65861.76;;;11.33;100.00
44675;BME280;30388;52.038;-1.478;2022-10-15T01:43:21;65845.06;;;11.39;100.00
44675;BME280;30388;52.038;-1.478;2022-10-15T01:45:53;65832.43;;;11.23;100.00
44675;BME280;30388;52.038;-1.478;2022-10-15T01:48:26;65883.54;;;11.39;100.00
44675;BME280;30388;52.038;-1.478;2022-10-15T01:50:58;65895.09;;;11.53;100.00
44675;BME280;30388;52.038;-1.478;2022-10-15T01:53:27;65914.77;;;11.78;100.00
44675;BME280;30388;52.038;-1.478;2022-10-15T01:55:57;65883.91;;;11.39;100.00
44675;BME280;30388;52.038;-1.478;2022-10-15T01:58:27;65909.20;;;11.71;100.00
44675;BME280;30388;52.038;-1.478;2022-10-15T02:00:56;65826.45;;;11.15;100.00
44675;BME280;30388;52.038;-1.478;2022-10-15T02:03:24;65824.01;;;11.13;100.00
44675;BME280;30388;52.038;-1.478;2022-10-15T02:05:58;65833.39;;;10.97;100.00
44675;BME280;30388;52.038;-1.478;2022-10-15T02:08:32;65777.24;;;10.52;100.00
44675;BME280;30388;52.038;-1.478;2022-10-15T02:11:07;65767.03;;;10.40;100.00
44675;BME280;30388;52.038;-1.478;2022-10-15T02:13:45;65800.69;;;10.34;100.00
44675;BME280;30388;52.038;-1.478;2022-10-15T02:16:20;65766.77;;;10.40;100.00
44675;BME280;30388;52.038;-1.478;2022-10-15T02:18:55;65790.32;;;10.70;100.00
44675;BME280;30388;52.038;-1.478;2022-10-15T02:21:30;65786.41;;;10.65;100.00
44675;BME280;30388;52.038;-1.478;2022-10-15T02:24:05;65839.83;;;11.32;100.00
44675;BME280;30388;52.038;-1.478;2022-10-15T02:26:36;65764.15;;;10.36;100.00
44675;BME280;30388;52.038;-1.478;2022-10-15T02:29:06;65843.72;;;11.37;100.00
44675;BME280;30388;52.038;-1.478;2022-10-15T02:31:38;65821.52;;;11.10;100.00
44675;BME280;30388;52.038;-1.478;2022-10-15T02:34:09;65819.18;;;11.06;100.00
44675;BME280;30388;52.038;-1.478;2022-10-15T02:36:39;65879.49;;;11.33;100.00
44675;BME280;30388;52.038;-1.478;2022-10-15T02:39:10;65915.35;;;11.78;100.00
44675;BME280;30388;52.038;-1.478;2022-10-15T02:41:39;65902.42;;;11.62;100.00
44675;BME280;30388;52.038;-1.478;2022-10-15T02:44:06;65910.17;;;11.73;100.00
44675;BME280;30388;52.038;-1.478;2022-10-15T02:46:33;65855.67;;;11.02;100.00
44675;BME280;30388;52.038;-1.478;2022-10-15T02:49:01;65807.14;;;10.41;100.00
44675;BME280;30388;52.038;-1.478;2022-10-15T02:51:31;65784.48;;;10.62;100.00
44675;BME280;30388;52.038;-1.478;2022-10-15T02:53:58;65805.64;;;11.11;100.00
44675;BME280;30388;52.038;-1.478;2022-10-15T02:56:26;65824.24;;;11.13;100.00
44675;BME280;30388;52.038;-1.478;2022-10-15T02:58:53;65683.65;;;9.57;100.00
44675;BME280;30388;52.038;-1.478;2022-10-15T03:01:20;65729.69;;;10.15;100.00
44675;BME280;30388;52.038;-1.478;2022-10-15T03:03:48;65738.62;;;10.49;100.00
44675;BME280;30388;52.038;-1.478;2022-10-15T03:06:16;65755.97;;;10.71;100.00
44675;BME280;30388;52.038;-1.478;2022-10-15T03:08:43;65791.58;;;10.93;100.00
44675;BME280;30388;52.038;-1.478;2022-10-15T03:11:11;65766.10;;;10.84;100.00
44675;BME280;30388;52.038;-1.478;2022-10-15T03:13:38;65745.46;;;10.35;100.00
44675;BME280;30388;52.038;-1.478;2022-10-15T03:16:06;65801.62;;;10.84;100.00
44675;BME280;30388;52.038;-1.478;2022-10-15T03:18:35;65751.86;;;10.43;100.00
44675;BME280;30388;52.038;-1.478;2022-10-15T03:21:02;65790.54;;;10.91;100.00
44675;BME280;30388;52.038;-1.478;2022-10-15T03:23:30;65771.41;;;10.68;100.00
44675;BME280;30388;52.038;-1.478;2022-10-15T03:25:57;65759.27;;;10.75;100.00
44675;BME280;30388;52.038;-1.478;2022-10-15T03:28:24;65759.89;;;10.76;100.00
44675;BME280;30388;52.038;-1.478;2022-10-15T03:30:51;65777.74;;;10.53;100.00
44675;BME280;30388;52.038;-1.478;2022-10-15T03:33:18;65793.81;;;10.97;100.00
44675;BME280;30388;52.038;-1.478;2022-10-15T03:35:45;65791.65;;;10.71;100.00
44675;BME280;30388;52.038;-1.478;2022-10-15T03:38:12;65774.78;;;10.73;100.00
44675;BME280;30388;52.038;-1.478;2022-10-15T03:40:39;65766.22;;;10.84;100.00
44675;BME280;30388;52.038;-1.478;2022-10-15T03:43:06;65795.22;;;10.76;100.00
44675;BME280;30388;52.038;-1.478;2022-10-15T03:45:33;65797.08;;;10.78;100.00
44675;BME280;30388;52.038;-1.478;2022-10-15T03:48:00;65759.12;;;10.75;100.00
44675;BME280;30388;52.038;-1.478;2022-10-15T03:50:28;65794.50;;;10.97;100.00
44675;BME280;30388;52.038;-1.478;2022-10-15T03:52:54;65801.10;;;10.83;100.00
44675;BME280;30388;52.038;-1.478;2022-10-15T03:55:22;65797.51;;;11.23;100.00
44675;BME280;30388;52.038;-1.478;2022-10-15T03:57:49;65769.45;;;10.87;100.00
44675;BME280;30388;52.038;-1.478;2022-10-15T04:00:16;65819.94;;;11.30;100.00
44675;BME280;30388;52.038;-1.478;2022-10-15T04:02:44;65802.49;;;10.85;100.00
44675;BME280;30388;52.038;-1.478;2022-10-15T04:05:11;65817.59;;;11.05;100.00
44675;BME280;30388;52.038;-1.478;2022-10-15T04:07:39;65791.78;;;10.94;100.00
44675;BME280;30388;52.038;-1.478;2022-10-15T04:10:07;65764.22;;;10.82;100.00
44675;BME280;30388;52.038;-1.478;2022-10-15T04:12:34;65805.34;;;11.11;100.00
44675;BME280;30388;52.038;-1.478;2022-10-15T04:15:03;65829.77;;;11.19;100.00
44675;BME280;30388;52.038;-1.478;2022-10-15T04:17:30;65785.47;;;10.86;100.00
44675;BME280;30388;52.038;-1.478;2022-10-15T04:19:58;65796.87;;;10.77;100.00
44675;BME280;30388;52.038;-1.478;2022-10-15T04:22:25;65819.99;;;11.08;100.00
44675;BME280;30388;52.038;-1.478;2022-10-15T04:24:52;65791.89;;;11.16;100.00
44675;BME280;30388;52.038;-1.478;2022-10-15T04:27:19;65779.83;;;10.79;100.00
44675;BME280;30388;52.038;-1.478;2022-10-15T04:29:46;65792.52;;;10.94;100.00
44675;BME280;30388;52.038;-1.478;2022-10-15T04:32:13;65825.74;;;11.15;100.00
44675;BME280;30388;52.038;-1.478;2022-10-15T04:34:41;65779.66;;;11.01;100.00
44675;BME280;30388;52.038;-1.478;2022-10-15T04:37:08;65801.35;;;10.84;100.00
44675;BME280;30388;52.038;-1.478;2022-10-15T04:39:35;65774.87;;;10.73;100.00
44675;BME280;30388;52.038;-1.478;2022-10-15T04:42:03;65791.94;;;10.95;100.00
44675;BME280;30388;52.038;-1.478;2022-10-15T04:44:30;65799.58;;;10.82;100.00
44675;BME280;30388;52.038;-1.478;2022-10-15T04:46:59;65779.68;;;10.80;100.00
44675;BME280;30388;52.038;-1.478;2022-10-15T04:49:26;65790.95;;;10.71;100.00
44675;BME280;30388;52.038;-1.478;2022-10-15T04:51:53;65785.68;;;10.64;100.00
44675;BME280;30388;52.038;-1.478;2022-10-15T04:54:21;65832.14;;;11.24;100.00
44675;BME280;30388;52.038;-1.478;2022-10-15T04:56:48;65736.78;;;10.47;100.00
44675;BME280;30388;52.038;-1.478;2022-10-15T04:59:15;65710.17;;;10.13;100.00
44675;BME280;30388;52.038;-1.478;2022-10-15T05:01:42;65686.92;;;10.33;100.00
44675;BME280;30388;52.038;-1.478;2022-10-15T05:04:10;65735.13;;;10.22;100.00
44675;BME280;30388;52.038;-1.478;2022-10-15T05:06:37;65812.31;;;10.97;100.00
44675;BME280;30388;52.038;-1.478;2022-10-15T05:09:04;65781.13;;;10.58;100.00
44675;BME280;30388;52.038;-1.478;2022-10-15T05:11:35;65800.63;;;10.83;100.00
44675;BME280;30388;52.038;-1.478;2022-10-15T05:14:03;65749.68;;;10.63;100.00
44675;BME280;30388;52.038;-1.478;2022-10-15T05:16:32;65770.93;;;10.67;100.00
44675;BME280;30388;52.038;-1.478;2022-10-15T05:19:02;65816.44;;;11.03;100.00
44675;BME280;30388;52.038;-1.478;2022-10-15T05:21:32;65844.08;;;11.11;100.00
44675;BME280;30388;52.038;-1.478;2022-10-15T05:23:59;65839.68;;;11.05;100.00
44675;BME280;30388;52.038;-1.478;2022-10-15T05:26:33;65893.45;;;11.51;100.00
44675;BME280;30388;52.038;-1.478;2022-10-15T05:29:01;65902.74;;;11.63;100.00
44675;BME280;30388;52.038;-1.478;2022-10-15T05:31:30;65915.51;;;11.79;100.00
44675;BME280;30388;52.038;-1.478;2022-10-15T05:33:59;65919.94;;;11.85;100.00
44675;BME280;30388;52.038;-1.478;2022-10-15T05:36:32;65913.62;;;11.50;100.00
44675;BME280;30388;52.038;-1.478;2022-10-15T05:39:01;65861.14;;;11.32;100.00
44675;BME280;30388;52.038;-1.478;2022-10-15T05:41:29;65846.59;;;11.41;100.00
44675;BME280;30388;52.038;-1.478;2022-10-15T05:43:57;65868.90;;;11.42;100.00
44675;BME280;30388;52.038;-1.478;2022-10-15T05:46:25;65851.60;;;11.47;100.00
44675;BME280;30388;52.038;-1.478;2022-10-15T05:48:54;65804.42;;;10.88;100.00
44675;BME280;30388;52.038;-1.478;2022-10-15T05:51:23;65828.72;;;11.18;100.00
44675;BME280;30388;52.038;-1.478;2022-10-15T05:53:51;65787.31;;;10.67;100.00
44675;BME280;30388;52.038;-1.478;2022-10-15T05:56:19;65806.39;;;10.91;100.00
44675;BME280;30388;52.038;-1.478;2022-10-15T05:58:47;65746.04;;;10.36;100.00
44675;BME280;30388;52.038;-1.478;2022-10-15T06:01:14;65798.05;;;10.79;100.00
44675;BME280;30388;52.038;-1.478;2022-10-15T06:03:43;65692.24;;;9.90;100.00
44675;BME280;30388;52.038;-1.478;2022-10-15T06:06:14;65716.46;;;10.21;100.00
44675;BME280;30388;52.038;-1.478;2022-10-15T06:08:42;65729.56;;;10.37;100.00
44675;BME280;30388;52.038;-1.478;2022-10-15T06:11:10;65746.94;;;10.59;100.00
44675;BME280;30388;52.038;-1.478;2022-10-15T06:13:38;65734.45;;;10.44;100.00
44675;BME280;30388;52.038;-1.478;2022-10-15T06:16:06;65717.45;;;10.22;100.00
44675;BME280;30388;52.038;-1.478;2022-10-15T06:18:34;65714.53;;;10.19;100.00
44675;BME280;30388;52.038;-1.478;2022-10-15T06:21:01;65688.58;;;9.86;100.00
44675;BME280;30388;52.038;-1.478;2022-10-15T06:23:29;65733.88;;;10.43;100.00
44675;BME280;30388;52.038;-1.478;2022-10-15T06:26:00;65718.39;;;10.23;100.00
44675;BME280;30388;52.038;-1.478;2022-10-15T06:28:27;65734.04;;;10.43;100.00
44675;BME280;30388;52.038;-1.478;2022-10-15T06:30:57;65724.40;;;10.09;100.00
44675;BME280;30388;52.038;-1.478;2022-10-15T06:33:25;65699.62;;;10.26;100.00
44675;BME280;30388;52.038;-1.478;2022-10-15T06:35:53;65696.16;;;9.74;100.00
44675;BME280;30388;52.038;-1.478;2022-10-15T06:38:21;65717.12;;;10.22;100.00
44675;BME280;30388;52.038;-1.478;2022-10-15T06:40:48;65695.28;;;9.94;100.00
44675;BME280;30388;52.038;-1.478;2022-10-15T06:43:15;65676.06;;;9.71;100.00
44675;BME280;30388;52.038;-1.478;2022-10-15T06:45:42;65644.39;;;9.30;100.00
44675;BME280;30388;52.038;-1.478;2022-10-15T06:48:10;65685.82;;;9.83;100.00
44675;BME280;30388;52.038;-1.478;2022-10-15T06:50:38;65701.69;;;10.03;100.00
44675;BME280;30388;52.038;-1.478;2022-10-15T06:53:06;65717.36;;;10.22;100.00
44675;BME280;30388;52.038;-1.478;2022-10-15T06:55:35;65687.53;;;9.85;100.00
44675;BME280;30388;52.038;-1.478;2022-10-15T06:58:02;65718.17;;;10.24;100.00
44675;BME280;30388;52.038;-1.478;2022-10-15T07:00:30;65689.61;;;9.87;100.00
44675;BME280;30388;52.038;-1.478;2022-10-15T07:03:02;65701.15;;;9.80;100.00
44675;BME280;30388;52.038;-1.478;2022-10-15T07:05:29;65667.60;;;9.85;100.00
44675;BME280;30388;52.038;-1.478;2022-10-15T07:07:58;65672.37;;;9.65;100.00
44675;BME280;30388;52.038;-1.478;2022-10-15T07:10:27;65678.53;;;10.00;100.00
44675;BME280;30388;52.038;-1.478;2022-10-15T07:12:54;65686.45;;;9.84;100.00
44675;BME280;30388;52.038;-1.478;2022-10-15T07:15:27;65674.87;;;9.95;100.00
44675;BME280;30388;52.038;-1.478;2022-10-15T07:17:55;65662.81;;;9.80;100.00
44675;BME280;30388;52.038;-1.478;2022-10-15T07:20:23;65648.75;;;9.62;100.00
44675;BME280;30388;52.038;-1.478;2022-10-15T07:22:55;65663.12;;;9.80;100.00
44675;BME280;30388;52.038;-1.478;2022-10-15T07:25:23;65678.21;;;9.99;100.00
44675;BME280;30388;52.038;-1.478;2022-10-15T07:27:50;65725.79;;;10.60;100.00
44675;BME280;30388;52.038;-1.478;2022-10-15T07:30:17;65759.84;;;10.76;100.00
44675;BME280;30388;52.038;-1.478;2022-10-15T07:32:44;65802.50;;;11.30;100.00
44675;BME280;30388;52.038;-1.478;2022-10-15T07:35:11;65751.57;;;10.93;100.00
44675;BME280;30388;52.038;-1.478;2022-10-15T07:37:38;65745.93;;;10.59;100.00
44675;BME280;30388;52.038;-1.478;2022-10-15T07:40:07;65717.77;;;10.23;100.00
44675;BME280;30388;52.038;-1.478;2022-10-15T07:42:34;65767.46;;;10.86;100.00
44675;BME280;30388;52.038;-1.478;2022-10-15T07:45:02;65770.13;;;10.89;100.00
44675;BME280;30388;52.038;-1.478;2022-10-15T07:47:30;65761.01;;;10.78;100.00
44675;BME280;30388;52.038;-1.478;2022-10-15T07:49:57;65760.98;;;10.55;100.00
44675;BME280;30388;52.038;-1.478;2022-10-15T07:52:25;65709.81;;;10.62;100.00
44675;BME280;30388;52.038;-1.478;2022-10-15T07:54:52;65702.91;;;10.04;100.00
44675;BME280;30388;52.038;-1.478;2022-10-15T07:57:19;65719.27;;;10.25;100.00
44675;BME280;30388;52.038;-1.478;2022-10-15T07:59:46;65745.19;;;10.35;100.00
44675;BME280;30388;52.038;-1.478;2022-10-15T08:02:15;65757.50;;;10.51;100.00
44675;BME280;30388;52.038;-1.478;2022-10-15T08:04:43;65727.72;;;10.13;100.00
44675;BME280;30388;52.038;-1.478;2022-10-15T08:07:11;65705.40;;;10.07;100.00
44675;BME280;30388;52.038;-1.478;2022-10-15T08:09:38;65744.24;;;10.35;100.00
44675;BME280;30388;52.038;-1.478;2022-10-15T08:12:05;65713.70;;;10.18;100.00
44675;BME280;30388;52.038;-1.478;2022-10-15T08:14:32;65718.43;;;10.23;100.00
44675;BME280;30388;52.038;-1.478;2022-10-15T08:17:00;65716.60;;;9.99;100.00
44675;BME280;30388;52.038;-1.478;2022-10-15T08:19:28;65720.53;;;10.26;100.00
44675;BME280;30388;52.038;-1.478;2022-10-15T08:21:55;65777.30;;;10.98;100.00
44675;BME280;30388;52.038;-1.478;2022-10-15T08:24:23;65746.70;;;10.60;100.00
44675;BME280;30388;52.038;-1.478;2022-10-15T08:26:51;65720.01;;;10.26;100.00
44675;BME280;30388;52.038;-1.478;2022-10-15T08:29:18;65740.11;;;10.51;100.00
44675;BME280;30388;52.038;-1.478;2022-10-15T08:31:45;65682.85;;;9.79;100.00
44675;BME280;30388;52.038;-1.478;2022-10-15T08:34:12;65736.04;;;10.46;100.00
44675;BME280;30388;52.038;-1.478;2022-10-15T08:36:40;65776.38;;;10.97;100.00
44675;BME280;30388;52.038;-1.478;2022-10-15T08:39:07;65785.45;;;10.86;100.00
44675;BME280;30388;52.038;-1.478;2022-10-15T08:41:37;65734.64;;;10.44;100.00
44675;BME280;30388;52.038;-1.478;2022-10-15T08:44:08;65742.27;;;10.54;100.00
44675;BME280;30388;52.038;-1.478;2022-10-15T08:46:42;65775.95;;;10.52;100.00
44675;BME280;30388;52.038;-1.478;2022-10-15T08:49:19;65733.45;;;10.43;100.00
44675;BME280;30388;52.038;-1.478;2022-10-15T08:51:54;65770.53;;;10.89;100.00
44675;BME280;30388;52.038;-1.478;2022-10-15T08:54:24;65675.48;;;9.70;100.00
44675;BME280;30388;52.038;-1.478;2022-10-15T08:57:13;65721.11;;;10.27;100.00
44675;BME280;30388;52.038;-1.478;2022-10-15T08:59:50;65744.27;;;10.56;100.00
44675;BME280;30388;52.038;-1.478;2022-10-15T09:02:24;65777.86;;;10.77;100.00
44675;BME280;30388;52.038;-1.478;2022-10-15T09:04:58;65795.56;;;10.77;100.00
44675;BME280;30388;52.038;-1.478;2022-10-15T09:07:34;65870.55;;;11.45;100.00
44675;BME280;30388;52.038;-1.478;2022-10-15T09:10:14;65812.15;;;10.98;100.00
44675;BME280;30388;52.038;-1.478;2022-10-15T09:12:50;65877.92;;;11.54;100.00
44675;BME280;30388;52.038;-1.478;2022-10-15T09:15:27;65870.73;;;11.73;100.00
44675;BME280;30388;52.038;-1.478;2022-10-15T09:18:00;65919.57;;;12.33;100.00
44675;BME280;30388;52.038;-1.478;2022-10-15T09:20:31;65892.83;;;11.51;100.00
44675;BME280;30388;52.038;-1.478;2022-10-15T09:23:01;65953.59;;;12.28;100.00
44675;BME280;30388;52.038;-1.478;2022-10-15T09:25:33;65987.82;;;12.71;100.00
44675;BME280;30388;52.038;-1.478;2022-10-15T09:28:10;65943.05;;;12.14;100.00
44675;BME280;30388;52.038;-1.478;2022-10-15T09:30:46;66033.43;;;13.02;100.00
44675;BME280;30388;52.038;-1.478;2022-10-15T09:33:20;65948.27;;;12.20;100.00
44675;BME280;30388;52.038;-1.478;2022-10-15T09:35:55;65948.48;;;12.43;100.00
44675;BME280;30388;52.038;-1.478;2022-10-15T09:38:43;65988.29;;;12.71;100.00
44675;BME280;30388;52.038;-1.478;2022-10-15T09:41:22;66012.06;;;13.01;100.00
44675;BME280;30388;52.038;-1.478;2022-10-15T09:43:55;66043.42;;;12.92;100.00
44675;BME280;30388;52.038;-1.478;2022-10-15T09:46:24;66044.87;;;13.16;100.00
44675;BME280;30388;52.038;-1.478;2022-10-15T09:48:57;66016.45;;;12.81;100.00
44675;BME280;30388;52.038;-1.478;2022-10-15T09:51:33;65930.29;;;12.21;100.00
44675;BME280;30388;52.038;-1.478;2022-10-15T09:54:07;65892.11;;;11.99;100.00
44675;BME280;30388;52.038;-1.478;2022-10-15T09:56:40;66002.79;;;12.65;100.00
44675;BME280;30388;52.038;-1.478;2022-10-15T09:59:17;66013.88;;;12.77;100.00
44675;BME280;30388;52.038;-1.478;2022-10-15T10:01:57;65993.94;;;12.52;100.00
44675;BME280;30388;52.038;-1.478;2022-10-15T10:04:26;66061.91;;;13.37;100.00
44675;BME280;30388;52.038;-1.478;2022-10-15T10:06:56;66094.52;;;13.56;100.00
44675;BME280;30388;52.038;-1.478;2022-10-15T10:09:28;66109.43;;;13.75;100.00
44675;BME280;30388;52.038;-1.478;2022-10-15T10:11:59;66160.72;;;13.90;100.00
44675;BME280;30388;52.038;-1.478;2022-10-15T10:14:29;66133.11;;;14.05;100.00
44675;BME280;30388;52.038;-1.478;2022-10-15T10:17:16;66171.37;;;14.04;100.00
44675;BME280;30388;52.038;-1.478;2022-10-15T10:19:45;66121.11;;;13.90;100.00
44675;BME280;30388;52.038;-1.478;2022-10-15T10:22:15;66178.50;;;14.40;100.00
44675;BME280;30388;52.038;-1.478;2022-10-15T10:24:44;66178.84;;;14.40;100.00
44675;BME280;30388;52.038;-1.478;2022-10-15T10:27:22;66208.90;;;14.52;100.00
44675;BME280;30388;52.038;-1.478;2022-10-15T10:29:55;66252.14;;;15.06;100.00
44675;BME280;30388;52.038;-1.478;2022-10-15T10:32:28;66197.63;;;14.37;100.00
44675;BME280;30388;52.038;-1.478;2022-10-15T10:34:57;66176.09;;;14.10;100.00
44675;BME280;30388;52.038;-1.478;2022-10-15T10:37:25;66230.02;;;14.78;100.00
44675;BME280;30388;52.038;-1.478;2022-10-15T10:39:54;66235.53;;;14.85;100.00
44675;BME280;30388;52.038;-1.478;2022-10-15T10:42:27;66319.70;;;15.69;100.00
44675;BME280;30388;52.038;-1.478;2022-10-15T10:45:13;66260.85;;;15.17;100.00
44675;BME280;30388;52.038;-1.478;2022-10-15T10:47:40;66190.41;;;14.55;100.00
44675;BME280;30388;52.038;-1.478;2022-10-15T10:50:27;66292.34;;;15.34;100.00
44675;BME280;30388;52.038;-1.478;2022-10-15T10:52:54;66289.05;;;15.29;100.00
44675;BME280;30388;52.038;-1.478;2022-10-15T10:55:23;66157.34;;;13.86;100.00
44675;BME280;30388;52.038;-1.478;2022-10-15T10:57:57;66123.34;;;13.70;100.00
44675;BME280;30388;52.038;-1.478;2022-10-15T11:00:32;66177.85;;;14.12;100.00
44675;BME280;30388;52.038;-1.478;2022-10-15T11:03:01;66034.40;;;13.02;100.00
44675;BME280;30388;52.038;-1.478;2022-10-15T11:05:31;65994.14;;;12.78;100.00
44675;BME280;30388;52.038;-1.478;2022-10-15T11:08:07;66012.54;;;12.74;100.00
44675;BME280;30388;52.038;-1.478;2022-10-15T11:10:45;66052.08;;;13.02;100.00
44675;BME280;30388;52.038;-1.478;2022-10-15T11:13:26;66071.00;;;13.26;100.00
44675;BME280;30388;52.038;-1.478;2022-10-15T11:16:02;65927.43;;;11.94;100.00
44675;BME280;30388;52.038;-1.478;2022-10-15T11:18:46;65958.52;;;12.33;100.00
44675;BME280;30388;52.038;-1.478;2022-10-15T11:21:25;65911.45;;;11.74;100.00
44675;BME280;30388;52.038;-1.478;2022-10-15T11:24:07;65903.61;;;11.64;100.00
44675;BME280;30388;52.038;-1.478;2022-10-15T11:26:47;65869.53;;;11.70;100.00
44675;BME280;30388;52.038;-1.478;2022-10-15T11:29:24;65943.45;;;12.14;100.00
44675;BME280;30388;52.038;-1.478;2022-10-15T11:32:02;65932.75;;;12.01;100.00
44675;BME280;30388;52.038;-1.478;2022-10-15T11:34:44;65985.71;;;12.41;100.00
44675;BME280;30388;52.038;-1.478;2022-10-15T11:37:28;66034.72;;;12.80;100.00
44675;BME280;30388;52.038;-1.478;2022-10-15T11:40:12;66022.14;;;12.66;100.00
44675;BME280;30388;52.038;-1.478;2022-10-15T11:42:47;65976.03;;;12.07;100.00
44675;BME280;30388;52.038;-1.478;2022-10-15T11:45:59;66097.32;;;13.60;100.00
44675;BME280;30388;52.038;-1.478;2022-10-15T11:48:43;66217.29;;;14.63;100.00
44675;BME280;30388;52.038;-1.478;2022-10-15T11:51:21;66216.13;;;14.61;100.00
44675;BME280;30388;52.038;-1.478;2022-10-15T11:54:16;66222.16;;;14.69;100.00
44675;BME280;30388;52.038;-1.478;2022-10-15T11:56:46;66253.71;;;14.86;100.00
44675;BME280;30388;52.038;-1.478;2022-10-15T11:59:23;66303.95;;;15.50;100.00
44675;BME280;30388;52.038;-1.478;2022-10-15T12:01:58;66253.95;;;15.08;100.00
44675;BME280;30388;52.038;-1.478;2022-10-15T12:04:32;66225.71;;;14.73;100.00
44675;BME280;30388;52.038;-1.478;2022-10-15T12:07:05;66370.04;;;16.10;100.00
44675;BME280;30388;52.038;-1.478;2022-10-15T12:09:37;66301.90;;;15.24;100.00
44675;BME280;30388;52.038;-1.478;2022-10-15T12:12:11;66345.92;;;15.79;100.00
44675;BME280;30388;52.038;-1.478;2022-10-15T12:14:48;66352.58;;;15.87;100.00
44675;BME280;30388;52.038;-1.478;2022-10-15T12:17:23;66251.09;;;15.04;100.00
44675;BME280;30388;52.038;-1.478;2022-10-15T12:19:55;66293.69;;;15.58;100.00
44675;BME280;30388;52.038;-1.478;2022-10-15T12:22:37;66367.67;;;16.07;100.00
44675;BME280;30388;52.038;-1.478;2022-10-15T12:25:06;66463.78;;;16.78;100.00
44675;BME280;30388;52.038;-1.478;2022-10-15T12:28:13;66412.36;;;16.63;100.00
44675;BME280;30388;52.038;-1.478;2022-10-15T12:30:49;66336.63;;;15.68;100.00
44675;BME280;30388;52.038;-1.478;2022-10-15T12:33:25;66211.27;;;14.54;100.00
44675;BME280;30388;52.038;-1.478;2022-10-15T12:35:57;66262.14;;;14.95;100.00
44675;BME280;30388;52.038;-1.478;2022-10-15T12:38:29;66265.72;;;15.00;100.00
44675;BME280;30388;52.038;-1.478;2022-10-15T12:41:01;66172.53;;;14.06;100.00
44675;BME280;30388;52.038;-1.478;2022-10-15T12:43:30;66092.72;;;13.53;100.00
44675;BME280;30388;52.038;-1.478;2022-10-15T12:46:00;66038.61;;;13.08;100.00
44675;BME280;30388;52.038;-1.478;2022-10-15T12:48:31;65966.95;;;12.44;100.00
44675;BME280;30388;52.038;-1.478;2022-10-15T12:51:31;65989.99;;;12.73;100.00
44675;BME280;30388;52.038;-1.478;2022-10-15T12:53:59;66027.94;;;13.22;100.00
44675;BME280;30388;52.038;-1.478;2022-10-15T12:56:36;66118.03;;;13.64;100.00
44675;BME280;30388;52.038;-1.478;2022-10-15T12:59:28;66117.73;;;13.85;100.00
44675;BME280;30388;52.038;-1.478;2022-10-15T13:01:56;66063.46;;;13.39;100.00